createdAt,value
2019-06-26T00:01:53.833Z,96931.09
2019-06-26T00:04:21.703Z,96930.16
2019-06-26T00:06:49.640Z,96928.91
2019-06-26T00:09:17.865Z,96932.09
2019-06-26T00:11:46.211Z,96935.20
2019-06-26T00:14:14.496Z,96935.80
2019-06-26T00:16:42.455Z,96936.53
2019-06-26T00:19:10.328Z,96931.35
2019-06-26T00:21:38.384Z,96939.09
2019-06-26T00:24:06.798Z,96935.12
2019-06-26T00:26:34.738Z,96938.72
2019-06-26T00:29:03.265Z,96937.63
2019-06-26T00:31:31.380Z,96942.23
2019-06-26T00:33:59.471Z,96939.70
2019-06-26T00:36:27.549Z,96939.04
2019-06-26T00:38:56.017Z,96938.16
2019-06-26T00:41:24.184Z,96936.20
2019-06-26T00:43:52.285Z,96944.77
2019-06-26T00:46:20.358Z,96938.73
2019-06-26T00:48:48.800Z,96940.38
2019-06-26T00:51:16.910Z,96936.66
2019-06-26T00:53:44.951Z,96936.94
2019-06-26T00:56:13.040Z,96940.89
2019-06-26T00:58:41.431Z,96936.35
2019-06-26T01:01:09.558Z,96940.17
2019-06-26T01:03:37.694Z,96944.37
2019-06-26T01:06:08.030Z,96934.77
2019-06-26T01:08:36.157Z,96936.69
2019-06-26T01:11:04.245Z,96937.73
2019-06-26T01:13:32.913Z,96942.02
2019-06-26T01:16:00.969Z,96938.86
2019-06-26T01:18:29.284Z,96938.34
2019-06-26T01:20:57.520Z,96939.55
2019-06-26T01:23:25.495Z,96936.17
2019-06-26T01:25:54.199Z,96940.34
2019-06-26T01:28:22.037Z,96941.08
2019-06-26T01:30:50.511Z,96942.85
2019-06-26T01:33:18.843Z,96942.81
2019-06-26T01:35:47.102Z,96941.91
2019-06-26T01:38:15.239Z,96937.59
2019-06-26T01:40:43.432Z,96942.56
2019-06-26T01:43:11.304Z,96938.23
2019-06-26T01:45:39.260Z,96935.81
2019-06-26T01:48:07.557Z,96934.52
2019-06-26T01:50:35.587Z,96942.89
2019-06-26T01:53:03.584Z,96941.91
2019-06-26T01:55:31.582Z,96942.65
2019-06-26T01:58:00.722Z,96944.45
2019-06-26T02:00:29.541Z,96947.95
2019-06-26T02:02:57.579Z,96947.97
2019-06-26T02:05:25.715Z,96949.04
2019-06-26T02:07:54.233Z,96945.61
2019-06-26T02:10:22.865Z,96945.55
2019-06-26T02:12:51.380Z,96948.81
2019-06-26T02:15:21.437Z,96946.30
2019-06-26T02:17:49.828Z,96951.59
2019-06-26T02:20:18.381Z,96949.50
2019-06-26T02:22:49.447Z,96952.04
2019-06-26T02:25:16.579Z,96957.84
2019-06-26T02:27:44.671Z,96962.16
2019-06-26T02:30:12.742Z,96960.34
2019-06-26T02:32:40.852Z,96961.23
2019-06-26T02:35:10.425Z,96958.86
2019-06-26T02:37:39.316Z,96967.27
2019-06-26T02:40:07.954Z,96966.59
2019-06-26T02:42:36.090Z,96969.27
2019-06-26T02:45:04.988Z,96968.30
2019-06-26T02:47:33.164Z,96973.45
2019-06-26T02:50:01.148Z,96972.91
2019-06-26T02:52:29.171Z,96975.69
2019-06-26T02:54:57.363Z,96966.45
2019-06-26T02:57:25.607Z,96969.33
2019-06-26T02:59:53.714Z,96965.38
2019-06-26T03:02:22.049Z,96967.58
2019-06-26T03:04:50.556Z,96959.76
2019-06-26T03:07:18.398Z,96964.87
2019-06-26T03:09:46.516Z,96966.20
2019-06-26T03:12:15.021Z,96965.38
2019-06-26T03:14:43.485Z,96967.99
2019-06-26T03:17:11.651Z,96974.41
2019-06-26T03:19:39.665Z,96964.80
2019-06-26T03:22:08.301Z,96964.52
2019-06-26T03:24:36.212Z,96965.18
2019-06-26T03:27:04.226Z,96968.16
2019-06-26T03:29:32.286Z,96969.13
2019-06-26T03:32:00.374Z,96971.49
2019-06-26T03:34:28.525Z,96969.70
2019-06-26T03:36:56.957Z,96970.91
2019-06-26T03:39:25.169Z,96965.92
2019-06-26T03:41:53.882Z,96967.91
2019-06-26T03:44:21.916Z,96967.89
2019-06-26T03:46:49.996Z,96967.50
2019-06-26T03:49:17.938Z,96971.94
2019-06-26T03:51:46.462Z,96971.05
2019-06-26T03:54:14.573Z,96971.48
2019-06-26T03:56:42.573Z,96973.69
2019-06-26T03:59:10.487Z,96981.39
2019-06-26T04:01:38.582Z,96975.87
2019-06-26T04:04:06.826Z,96987.97
2019-06-26T04:06:34.877Z,96993.94
2019-06-26T04:09:04.379Z,96985.39
2019-06-26T04:11:33.519Z,96988.16
2019-06-26T04:14:01.987Z,96997.39
2019-06-26T04:16:30.055Z,96995.78
2019-06-26T04:18:58.080Z,96999.16
2019-06-26T04:21:26.003Z,97002.84
2019-06-26T04:23:53.820Z,96992.94
2019-06-26T04:26:25.369Z,96989.61
2019-06-26T04:28:54.701Z,96986.72
2019-06-26T04:31:22.530Z,96994.91
2019-06-26T04:33:50.652Z,96995.09
2019-06-26T04:36:19.378Z,97002.97
2019-06-26T04:38:55.779Z,96993.99
2019-06-26T04:41:24.234Z,96997.42
2019-06-26T04:43:52.563Z,96999.72
2019-06-26T04:46:20.905Z,96998.00
2019-06-26T04:48:49.104Z,96998.22
2019-06-26T04:51:16.925Z,96996.37
2019-06-26T04:53:45.208Z,97000.16
2019-06-26T04:56:34.218Z,96997.74
2019-06-26T04:59:02.140Z,96999.58
2019-06-26T05:01:30.969Z,97001.38
2019-06-26T05:03:58.991Z,97006.88
2019-06-26T05:06:27.326Z,97008.77
2019-06-26T05:08:56.155Z,97009.42
2019-06-26T05:11:24.121Z,97010.38
2019-06-26T05:13:52.044Z,97010.51
2019-06-26T05:16:20.702Z,97012.89
2019-06-26T05:18:50.119Z,97010.70
2019-06-26T05:21:24.554Z,97013.97
2019-06-26T05:23:53.205Z,97011.98
2019-06-26T05:26:21.061Z,97017.07
2019-06-26T05:28:49.260Z,97018.47
2019-06-26T05:31:17.864Z,97018.73
2019-06-26T05:33:45.883Z,97018.61
2019-06-26T05:36:14.005Z,97015.97
2019-06-26T05:38:43.868Z,97019.72
2019-06-26T05:41:13.172Z,97024.31
2019-06-26T05:43:41.908Z,97031.16
2019-06-26T05:46:09.767Z,97029.77
2019-06-26T05:48:38.711Z,97026.70
2019-06-26T05:51:06.615Z,97033.95
2019-06-26T05:53:34.787Z,97036.35
2019-06-26T05:56:02.934Z,97030.57
2019-06-26T05:58:31.336Z,97034.52
2019-06-26T06:00:59.386Z,97041.90
2019-06-26T06:03:27.684Z,97039.16
2019-06-26T06:05:56.624Z,97041.30
2019-06-26T06:08:24.703Z,97039.21
2019-06-26T06:10:53.205Z,97049.20
2019-06-26T06:13:21.728Z,97045.66
2019-06-26T06:15:49.861Z,97047.89
2019-06-26T06:18:17.946Z,97047.12
2019-06-26T06:20:45.991Z,97048.20
2019-06-26T06:23:14.092Z,97058.49
2019-06-26T06:25:42.038Z,97056.62
2019-06-26T06:28:10.156Z,97053.39
2019-06-26T06:30:38.483Z,97057.48
2019-06-26T06:33:06.573Z,97056.83
2019-06-26T06:35:34.664Z,97056.25
2019-06-26T06:38:04.399Z,97063.29
2019-06-26T06:40:32.789Z,97067.58
2019-06-26T06:43:00.896Z,97068.77
2019-06-26T06:45:29.704Z,97066.63
2019-06-26T06:47:57.750Z,97063.09
2019-06-26T06:50:25.840Z,97062.08
2019-06-26T06:52:54.341Z,97063.85
2019-06-26T06:55:23.421Z,97061.65
2019-06-26T06:57:53.511Z,97063.55
2019-06-26T07:00:23.043Z,97067.57
2019-06-26T07:02:51.081Z,97068.98
2019-06-26T07:05:20.835Z,97069.73
2019-06-26T07:07:49.320Z,97069.91
2019-06-26T07:10:17.594Z,97075.73
2019-06-26T07:12:45.603Z,97072.13
2019-06-26T07:15:15.670Z,97081.80
2019-06-26T07:17:44.879Z,97082.34
2019-06-26T07:20:13.965Z,97081.60
2019-06-26T07:22:41.819Z,97082.73
2019-06-26T07:25:09.505Z,97079.91
2019-06-26T07:27:37.957Z,97083.76
2019-06-26T07:30:06.403Z,97080.98
2019-06-26T07:32:34.535Z,97080.09
2019-06-26T07:35:02.987Z,97081.87
2019-06-26T07:37:30.845Z,97090.10
2019-06-26T07:40:02.061Z,97092.69
2019-06-26T07:42:28.462Z,97083.68
2019-06-26T07:44:56.549Z,97090.78
2019-06-26T07:47:41.567Z,97090.28
2019-06-26T07:49:55.023Z,97088.91
2019-06-26T07:52:23.166Z,97089.59
2019-06-26T07:54:51.661Z,97090.55
2019-06-26T07:57:19.618Z,97095.74
2019-06-26T07:59:47.907Z,97091.67
2019-06-26T08:02:15.895Z,97089.48
2019-06-26T08:04:45.176Z,97093.62
2019-06-26T08:07:13.162Z,97093.30
2019-06-26T08:09:42.217Z,97090.29
2019-06-26T08:12:10.598Z,97093.55
2019-06-26T08:14:38.711Z,97097.92
2019-06-26T08:17:06.737Z,97100.60
2019-06-26T08:19:34.649Z,97098.52
2019-06-26T08:22:02.693Z,97096.60
2019-06-26T08:24:31.590Z,97098.48
2019-06-26T08:27:00.112Z,97099.91
2019-06-26T08:29:29.080Z,97101.49
2019-06-26T08:31:58.671Z,97096.30
2019-06-26T08:34:26.773Z,97097.16
2019-06-26T08:36:54.840Z,97099.59
2019-06-26T08:39:23.161Z,97099.52
2019-06-26T08:41:51.480Z,97096.52
2019-06-26T08:44:20.036Z,97102.25
2019-06-26T08:46:48.124Z,97097.92
2019-06-26T08:49:25.559Z,97107.23
2019-06-26T08:51:45.804Z,97094.55
2019-06-26T08:54:13.964Z,97098.44
2019-06-26T08:56:42.185Z,97099.31
2019-06-26T08:59:10.012Z,97098.49
2019-06-26T09:01:38.780Z,97100.75
2019-06-26T09:04:07.720Z,97098.58
2019-06-26T09:06:36.143Z,97103.63
2019-06-26T09:09:06.764Z,97102.17
2019-06-26T09:11:35.809Z,97100.45
2019-06-26T09:14:04.981Z,97098.63
2019-06-26T09:16:33.045Z,97101.02
2019-06-26T09:19:01.053Z,97097.63
2019-06-26T09:21:31.232Z,97097.90
2019-06-26T09:23:59.843Z,97100.92
2019-06-26T09:26:27.890Z,97099.61
2019-06-26T09:28:56.816Z,97108.70
2019-06-26T09:31:24.908Z,97098.30
2019-06-26T09:33:53.546Z,97102.52
2019-06-26T09:36:21.667Z,97104.03
2019-06-26T09:38:50.039Z,97109.96
2019-06-26T09:41:18.459Z,97104.34
2019-06-26T09:43:46.588Z,97110.73
2019-06-26T09:46:15.010Z,97112.50
2019-06-26T09:48:52.829Z,97110.70
2019-06-26T09:51:14.366Z,97114.25
2019-06-26T09:53:47.282Z,97110.88
2019-06-26T09:56:12.108Z,97114.58
2019-06-26T09:58:40.612Z,97114.70
2019-06-26T10:01:08.990Z,97111.11
2019-06-26T10:03:37.195Z,97113.66
2019-06-26T10:06:05.629Z,97113.37
2019-06-26T10:08:33.738Z,97106.09
2019-06-26T10:11:02.203Z,97105.98
2019-06-26T10:13:31.714Z,97106.17
2019-06-26T10:16:00.764Z,97100.48
2019-06-26T10:18:28.997Z,97102.75
2019-06-26T10:20:57.433Z,97103.66
2019-06-26T10:23:25.719Z,97105.13
2019-06-26T10:25:54.592Z,97099.54
2019-06-26T10:28:22.680Z,97099.33
2019-06-26T10:30:50.588Z,97093.02
2019-06-26T10:33:18.505Z,97096.68
2019-06-26T10:35:46.905Z,97094.30
2019-06-26T10:38:14.856Z,97093.27
2019-06-26T10:40:42.816Z,97098.67
2019-06-26T10:43:11.016Z,97099.45
2019-06-26T10:45:39.074Z,97097.95
2019-06-26T10:48:07.788Z,97095.81
2019-06-26T10:50:48.243Z,97095.81
2019-06-26T10:53:06.035Z,97098.97
2019-06-26T10:55:34.152Z,97091.53
2019-06-26T10:58:01.987Z,97091.32
2019-06-26T11:00:30.818Z,97091.48
2019-06-26T11:02:59.244Z,97091.16
2019-06-26T11:05:28.101Z,97089.25
2019-06-26T11:07:56.633Z,97098.41
2019-06-26T11:10:24.711Z,97091.04
2019-06-26T11:12:52.752Z,97095.64
2019-06-26T11:15:22.487Z,97084.88
2019-06-26T11:17:50.442Z,97088.77
2019-06-26T11:20:19.862Z,97085.81
2019-06-26T11:22:47.828Z,97082.95
2019-06-26T11:25:28.997Z,97083.97
2019-06-26T11:27:57.121Z,97085.59
2019-06-26T11:30:25.768Z,97076.66
2019-06-26T11:32:54.028Z,97076.55
2019-06-26T11:35:23.053Z,97076.37
2019-06-26T11:37:51.089Z,97074.02
2019-06-26T11:40:19.564Z,97073.59
2019-06-26T11:42:47.994Z,97074.09
2019-06-26T11:45:16.438Z,97074.23
2019-06-26T11:47:45.956Z,97077.45
2019-06-26T11:50:13.693Z,97073.87
2019-06-26T11:52:42.480Z,97073.70
2019-06-26T11:55:11.974Z,97070.38
2019-06-26T11:57:40.095Z,97071.05
2019-06-26T12:00:09.564Z,97068.88
2019-06-26T12:02:38.269Z,97073.07
2019-06-26T12:05:06.472Z,97069.14
2019-06-26T12:07:35.413Z,97058.89
2019-06-26T12:10:22.543Z,97063.52
2019-06-26T12:13:16.115Z,97059.40
2019-06-26T12:15:51.502Z,97058.58
2019-06-26T12:18:46.724Z,97055.14
2019-06-26T12:21:34.151Z,97054.00
2019-06-26T12:24:19.824Z,97058.97
2019-06-26T12:26:50.315Z,97056.33
2019-06-26T12:29:22.016Z,97046.30
2019-06-26T12:31:50.010Z,97045.92
2019-06-26T12:34:18.095Z,97045.39
2019-06-26T12:36:46.188Z,97043.17
2019-06-26T12:39:14.586Z,97039.34
2019-06-26T12:41:42.838Z,97034.53
2019-06-26T12:44:10.879Z,97040.78
2019-06-26T12:46:39.653Z,97043.66
2019-06-26T12:49:07.734Z,97038.70
2019-06-26T12:51:35.849Z,97030.69
2019-06-26T12:54:03.988Z,97035.76
2019-06-26T12:56:32.227Z,97036.64
2019-06-26T12:59:00.316Z,97033.95
2019-06-26T13:01:28.838Z,97038.05
2019-06-26T13:03:57.310Z,97034.97
2019-06-26T13:06:25.259Z,97032.95
2019-06-26T13:08:53.276Z,97031.85
2019-06-26T13:11:21.521Z,97023.18
2019-06-26T13:14:03.891Z,97030.77
2019-06-26T13:16:46.708Z,97017.12
2019-06-26T13:19:17.695Z,97011.41
2019-06-26T13:21:45.677Z,97014.78
2019-06-26T13:24:13.956Z,97011.50
2019-06-26T13:26:42.202Z,97014.66
2019-06-26T13:29:10.522Z,97015.47
2019-06-26T13:31:39.572Z,97009.72
2019-06-26T13:34:07.862Z,97015.91
2019-06-26T13:36:36.312Z,97007.85
2019-06-26T13:39:05.439Z,97004.19
2019-06-26T13:41:33.504Z,97002.56
2019-06-26T13:44:01.343Z,97002.81
2019-06-26T13:46:30.848Z,97010.94
2019-06-26T13:48:59.489Z,97010.20
2019-06-26T13:51:27.975Z,97007.16
2019-06-26T13:53:56.313Z,97013.20
2019-06-26T13:56:24.414Z,97009.23
2019-06-26T13:58:53.489Z,97006.89
2019-06-26T14:01:23.190Z,97006.48
2019-06-26T14:03:51.035Z,97003.43
2019-06-26T14:06:19.865Z,96999.88
2019-06-26T14:08:48.147Z,97002.43
2019-06-26T14:11:16.781Z,96997.09
2019-06-26T14:13:45.913Z,96993.08
2019-06-26T14:16:14.083Z,96993.98
2019-06-26T14:18:43.021Z,96996.66
2019-06-26T14:21:24.982Z,96997.25
2019-06-26T14:23:44.897Z,96997.33
2019-06-26T14:26:12.882Z,96994.20
2019-06-26T14:28:41.762Z,96990.34
2019-06-26T14:31:10.340Z,96996.45
2019-06-26T14:33:40.677Z,96996.48
2019-06-26T14:36:08.813Z,96992.14
2019-06-26T14:38:37.241Z,96989.97
2019-06-26T14:41:05.446Z,96993.67
2019-06-26T14:43:33.683Z,96992.34
2019-06-26T14:46:02.301Z,96985.20
2019-06-26T14:48:30.379Z,96976.45
2019-06-26T14:50:58.465Z,96975.88
2019-06-26T14:53:27.429Z,96978.09
2019-06-26T14:55:56.860Z,96979.12
2019-06-26T14:58:26.465Z,96975.13
2019-06-26T15:00:54.008Z,96965.36
2019-06-26T15:03:23.025Z,96967.55
2019-06-26T15:05:51.475Z,96969.34
2019-06-26T15:08:20.287Z,96965.05
2019-06-26T15:10:48.833Z,96962.36
2019-06-26T15:13:17.639Z,96957.05
2019-06-26T15:15:47.358Z,96958.41
2019-06-26T15:18:14.740Z,96954.61
2019-06-26T15:20:43.432Z,96951.34
2019-06-26T15:23:13.070Z,96951.87
2019-06-26T15:25:41.286Z,96950.50
2019-06-26T15:28:12.000Z,96942.13
2019-06-26T15:30:40.495Z,96947.91
2019-06-26T15:33:08.543Z,96935.59
2019-06-26T15:35:36.622Z,96937.15
2019-06-26T15:38:04.990Z,96929.13
2019-06-26T15:40:33.907Z,96929.45
2019-06-26T15:43:01.838Z,96929.09
2019-06-26T15:45:30.544Z,96923.46
2019-06-26T15:47:59.054Z,96922.41
2019-06-26T15:50:27.489Z,96921.66
2019-06-26T15:52:55.579Z,96925.38
2019-06-26T15:55:23.621Z,96916.44
2019-06-26T15:57:51.976Z,96923.36
2019-06-26T16:00:20.293Z,96919.09
2019-06-26T16:02:49.091Z,96918.81
2019-06-26T16:05:17.388Z,96918.63
2019-06-26T16:07:45.671Z,96914.73
2019-06-26T16:10:13.998Z,96917.65
2019-06-26T16:12:42.073Z,96910.78
2019-06-26T16:15:12.039Z,96912.33
2019-06-26T16:17:50.117Z,96914.60
2019-06-26T16:20:18.698Z,96912.73
2019-06-26T16:22:46.962Z,96915.34
2019-06-26T16:25:15.375Z,96912.45
2019-06-26T16:27:43.809Z,96921.39
2019-06-26T16:30:12.308Z,96918.34
2019-06-26T16:32:41.374Z,96916.25
2019-06-26T16:35:12.216Z,96912.98
2019-06-26T16:37:39.744Z,96908.56
2019-06-26T16:40:07.947Z,96908.69
2019-06-26T16:42:36.367Z,96905.32
2019-06-26T16:45:05.106Z,96904.22
2019-06-26T16:47:33.839Z,96904.34
2019-06-26T16:50:01.757Z,96903.35
2019-06-26T16:52:47.472Z,96903.35
2019-06-26T16:55:01.954Z,96904.73
2019-06-26T16:57:31.494Z,96897.86
2019-06-26T17:00:09.313Z,96896.45
2019-06-26T17:02:29.710Z,96893.52
2019-06-26T17:04:58.166Z,96892.67
2019-06-26T17:07:28.011Z,96890.86
2019-06-26T17:09:56.197Z,96890.73
2019-06-26T17:12:24.147Z,96892.75
2019-06-26T17:14:52.667Z,96890.66
2019-06-26T17:17:20.625Z,96892.31
2019-06-26T17:19:49.664Z,96894.70
2019-06-26T17:22:18.089Z,96890.88
2019-06-26T17:24:46.743Z,96896.75
2019-06-26T17:27:14.590Z,96899.41
2019-06-26T17:29:43.296Z,96898.94
2019-06-26T17:32:11.817Z,96895.95
2019-06-26T17:34:40.303Z,96893.92
2019-06-26T17:37:08.380Z,96894.22
2019-06-26T17:39:37.926Z,96890.38
2019-06-26T17:42:06.115Z,96892.98
2019-06-26T17:44:34.231Z,96896.92
2019-06-26T17:47:05.267Z,96890.26
2019-06-26T17:49:32.197Z,96893.02
2019-06-26T17:52:00.903Z,96892.05
2019-06-26T17:54:29.755Z,96893.00
2019-06-26T17:56:58.376Z,96887.27
2019-06-26T17:59:27.957Z,96891.77
2019-06-26T18:01:56.562Z,96890.55
2019-06-26T18:04:25.030Z,96886.23
2019-06-26T18:06:53.932Z,96894.72
2019-06-26T18:09:23.766Z,96888.07
2019-06-26T18:11:55.692Z,96888.70
2019-06-26T18:14:23.808Z,96891.40
2019-06-26T18:16:52.019Z,96894.94
2019-06-26T18:19:20.527Z,96892.59
2019-06-26T18:21:48.497Z,96889.40
2019-06-26T18:24:16.590Z,96890.74
2019-06-26T18:26:44.605Z,96898.17
2019-06-26T18:29:12.789Z,96895.33
2019-06-26T18:31:40.836Z,96891.24
2019-06-26T18:34:08.930Z,96889.02
2019-06-26T18:36:37.047Z,96885.18
2019-06-26T18:39:07.175Z,96891.13
2019-06-26T18:41:35.721Z,96892.34
2019-06-26T18:44:05.337Z,96894.72
2019-06-26T18:46:33.450Z,96892.75
2019-06-26T18:49:02.208Z,96895.48
2019-06-26T18:51:30.755Z,96897.70
2019-06-26T18:54:01.102Z,96895.57
2019-06-26T18:56:29.161Z,96907.00
2019-06-26T18:58:57.562Z,96898.53
2019-06-26T19:01:26.337Z,96906.64
2019-06-26T19:03:54.994Z,96898.94
2019-06-26T19:06:23.229Z,96901.89
2019-06-26T19:08:51.844Z,96903.38
2019-06-26T19:11:20.613Z,96903.39
2019-06-26T19:13:49.110Z,96911.53
2019-06-26T19:16:18.452Z,96911.22
2019-06-26T19:18:46.890Z,96913.86
2019-06-26T19:21:16.186Z,96913.86
2019-06-26T19:23:44.569Z,96916.42
2019-06-26T19:26:12.993Z,96914.95
2019-06-26T19:28:41.239Z,96913.72
2019-06-26T19:31:09.428Z,96916.98
2019-06-26T19:33:39.056Z,96917.68
2019-06-26T19:36:07.448Z,96916.77
2019-06-26T19:38:36.482Z,96918.86
2019-06-26T19:41:08.391Z,96920.37
2019-06-26T19:43:35.508Z,96919.66
2019-06-26T19:46:05.085Z,96924.09
2019-06-26T19:48:33.536Z,96923.09
2019-06-26T19:51:01.556Z,96923.48
2019-06-26T19:53:30.480Z,96928.76
2019-06-26T19:55:59.373Z,96922.62
2019-06-26T19:58:27.585Z,96929.03
2019-06-26T20:00:55.917Z,96928.95
2019-06-26T20:03:23.750Z,96925.86
2019-06-26T20:05:52.559Z,96930.02
2019-06-26T20:08:20.908Z,96935.44
2019-06-26T20:10:49.031Z,96930.88
2019-06-26T20:13:16.964Z,96928.70
2019-06-26T20:15:45.561Z,96931.86
2019-06-26T20:18:14.177Z,96930.27
2019-06-26T20:20:42.692Z,96921.58
2019-06-26T20:23:10.559Z,96925.31
2019-06-26T20:25:38.642Z,96923.80
2019-06-26T20:28:06.747Z,96925.92
2019-06-26T20:30:35.187Z,96925.03
2019-06-26T20:33:03.527Z,96921.63
2019-06-26T20:35:40.669Z,96923.78
2019-06-26T20:38:08.803Z,96922.09
2019-06-26T20:40:37.174Z,96919.61
2019-06-26T20:43:05.382Z,96918.38
2019-06-26T20:45:33.486Z,96925.27
2019-06-26T20:48:02.424Z,96924.61
2019-06-26T20:50:30.624Z,96918.58
2019-06-26T20:52:59.157Z,96924.34
2019-06-26T20:55:27.471Z,96925.83
2019-06-26T20:57:56.237Z,96926.14
2019-06-26T21:00:24.838Z,96925.13
2019-06-26T21:02:54.297Z,96925.67
2019-06-26T21:05:22.720Z,96927.94
2019-06-26T21:07:51.232Z,96928.19
2019-06-26T21:10:19.649Z,96927.37
2019-06-26T21:12:48.121Z,96928.20
2019-06-26T21:15:16.156Z,96933.80
2019-06-26T21:17:44.507Z,96933.33
2019-06-26T21:20:13.048Z,96941.76
2019-06-26T21:22:43.408Z,96942.01
2019-06-26T21:28:18.788Z,96942.33
2019-06-26T21:30:46.785Z,96944.26
2019-06-26T21:33:15.242Z,96947.13
2019-06-26T21:35:44.165Z,96944.95
2019-06-26T21:38:12.209Z,96947.05
2019-06-26T21:40:40.916Z,96948.73
2019-06-26T21:43:09.261Z,96941.97
2019-06-26T21:45:37.540Z,96945.78
2019-06-26T21:48:05.655Z,96950.90
2019-06-26T21:50:34.594Z,96946.59
2019-06-26T21:53:03.130Z,96947.20
2019-06-26T21:55:34.671Z,96943.44
2019-06-26T21:58:21.055Z,96943.84
2019-06-26T22:01:07.632Z,96946.69
2019-06-26T22:03:53.975Z,96944.73
2019-06-26T22:06:24.719Z,96945.02
2019-06-26T22:09:10.163Z,96950.66
2019-06-26T22:11:40.363Z,96947.58
2019-06-26T22:14:09.108Z,96948.12
2019-06-26T22:16:37.121Z,96948.08
2019-06-26T22:19:05.269Z,96939.69
2019-06-26T22:21:34.800Z,96939.23
2019-06-26T22:24:02.702Z,96941.94
2019-06-26T22:26:30.537Z,96941.16
2019-06-26T22:28:58.638Z,96945.30
2019-06-26T22:31:26.499Z,96943.49
2019-06-26T22:33:55.622Z,96945.91
2019-06-26T22:36:23.540Z,96943.94
2019-06-26T22:38:51.653Z,96938.33
2019-06-26T22:41:19.829Z,96947.78
2019-06-26T22:43:48.601Z,96945.30
2019-06-26T22:46:18.555Z,96940.34
2019-06-26T22:48:46.917Z,96937.80
2019-06-26T22:51:15.093Z,96943.41
2019-06-26T22:53:43.049Z,96943.66
2019-06-26T22:56:11.082Z,96948.11
2019-06-26T22:58:39.163Z,96950.47
2019-06-26T23:01:07.299Z,96944.95
2019-06-26T23:03:35.514Z,96949.61
2019-06-26T23:06:04.897Z,96948.47
2019-06-26T23:08:32.871Z,96948.55
2019-06-26T23:11:01.269Z,96950.72
2019-06-26T23:13:29.754Z,96943.14
2019-06-26T23:15:58.658Z,96944.86
2019-06-26T23:18:26.788Z,96946.63
2019-06-26T23:20:56.230Z,96944.45
2019-06-26T23:23:25.036Z,96943.11
2019-06-26T23:25:54.099Z,96941.38
2019-06-26T23:28:22.379Z,96941.99
2019-06-26T23:30:50.315Z,96943.17
2019-06-26T23:33:18.221Z,96941.36
2019-06-26T23:35:46.280Z,96943.09
2019-06-26T23:38:16.012Z,96946.29
2019-06-26T23:40:43.946Z,96934.01
2019-06-26T23:43:12.018Z,96932.57
2019-06-26T23:45:40.230Z,96937.91
2019-06-26T23:48:08.609Z,96933.16
2019-06-26T23:50:36.580Z,96937.05
2019-06-26T23:53:05.036Z,96933.16
2019-06-26T23:55:33.114Z,96928.15
2019-06-26T23:58:01.101Z,96929.94
